createdAt,value
2018-12-09T00:00:43.625Z,988.94
2018-12-09T00:01:43.557Z,988.85
2018-12-09T00:02:43.521Z,988.87
2018-12-09T00:03:43.480Z,988.93
2018-12-09T00:04:43.437Z,988.83
2018-12-09T00:05:43.396Z,988.88
2018-12-09T00:06:43.371Z,988.89
2018-12-09T00:07:43.306Z,988.73
2018-12-09T00:08:43.269Z,988.83
2018-12-09T00:09:43.226Z,988.85
2018-12-09T00:10:43.203Z,988.79
2018-12-09T00:11:43.139Z,988.88
2018-12-09T00:12:43.093Z,988.87
2018-12-09T00:13:43.050Z,988.87
2018-12-09T00:14:43.020Z,988.81
2018-12-09T00:15:42.997Z,988.83
2018-12-09T00:16:42.933Z,988.70
2018-12-09T00:17:42.893Z,988.88
2018-12-09T00:18:42.843Z,988.95
2018-12-09T00:19:42.799Z,988.83
2018-12-09T00:20:42.782Z,988.99
2018-12-09T00:21:42.716Z,989.08
2018-12-09T00:22:42.684Z,989.13
2018-12-09T00:23:42.638Z,989.05
2018-12-09T00:24:42.590Z,989.15
2018-12-09T00:25:42.576Z,989.18
2018-12-09T00:26:42.511Z,989.18
2018-12-09T00:27:42.467Z,989.24
2018-12-09T00:28:42.450Z,989.12
2018-12-09T00:29:42.395Z,989.13
2018-12-09T00:30:42.341Z,989.14
2018-12-09T00:31:42.298Z,989.23
2018-12-09T00:32:42.255Z,989.12
2018-12-09T00:33:42.237Z,989.13
2018-12-09T00:34:42.174Z,989.19
2018-12-09T00:35:42.134Z,989.24
2018-12-09T00:36:42.119Z,989.25
2018-12-09T00:37:42.052Z,989.21
2018-12-09T00:38:42.001Z,989.21
2018-12-09T00:39:41.958Z,989.22
2018-12-09T00:40:41.926Z,989.19
2018-12-09T00:41:41.882Z,989.22
2018-12-09T00:42:43.642Z,989.21
2018-12-09T00:43:41.790Z,989.17
2018-12-09T00:44:41.775Z,989.13
2018-12-09T00:45:41.708Z,989.22
2018-12-09T00:46:41.672Z,989.10
2018-12-09T00:47:41.632Z,989.10
2018-12-09T00:48:41.588Z,989.10
2018-12-09T00:49:41.548Z,989.10
2018-12-09T00:50:41.517Z,989.09
2018-12-09T00:51:41.453Z,989.13
2018-12-09T00:52:41.412Z,989.12
2018-12-09T00:53:41.370Z,989.02
2018-12-09T00:54:41.371Z,989.06
2018-12-09T00:55:41.294Z,989.02
2018-12-09T00:56:41.246Z,989.01
2018-12-09T00:57:41.202Z,989.09
2018-12-09T00:58:41.167Z,989.10
2018-12-09T00:59:41.147Z,989.11
2018-12-09T01:00:41.078Z,989.12
2018-12-09T01:01:41.039Z,988.94
2018-12-09T01:02:42.869Z,989.04
2018-12-09T01:03:40.949Z,989.09
2018-12-09T01:04:40.933Z,989.15
2018-12-09T01:05:40.865Z,989.21
2018-12-09T01:06:40.829Z,989.02
2018-12-09T01:07:40.786Z,989.12
2018-12-09T01:08:40.744Z,989.05
2018-12-09T01:09:40.705Z,989.10
2018-12-09T01:10:40.676Z,989.08
2018-12-09T01:11:40.634Z,989.18
2018-12-09T01:12:40.572Z,989.16
2018-12-09T01:13:40.532Z,989.24
2018-12-09T01:14:40.507Z,989.30
2018-12-09T01:15:40.442Z,989.22
2018-12-09T01:16:40.397Z,989.26
2018-12-09T01:17:40.362Z,989.32
2018-12-09T01:18:40.321Z,989.24
2018-12-09T01:19:40.302Z,989.31
2018-12-09T01:20:40.259Z,989.31
2018-12-09T01:21:40.195Z,989.29
2018-12-09T01:22:40.156Z,989.33
2018-12-09T01:23:40.102Z,989.39
2018-12-09T01:24:40.070Z,989.38
2018-12-09T01:25:40.044Z,989.26
2018-12-09T01:26:39.982Z,989.28
2018-12-09T01:27:39.941Z,989.22
2018-12-09T01:28:39.917Z,989.29
2018-12-09T01:29:39.853Z,989.30
2018-12-09T01:30:39.814Z,989.22
2018-12-09T01:31:39.774Z,989.23
2018-12-09T01:32:39.729Z,989.29
2018-12-09T01:33:39.708Z,989.19
2018-12-09T01:34:39.639Z,989.30
2018-12-09T01:35:39.594Z,989.06
2018-12-09T01:36:39.552Z,989.15
2018-12-09T01:37:39.533Z,989.21
2018-12-09T01:38:39.478Z,989.01
2018-12-09T01:39:39.434Z,989.11
2018-12-09T01:40:39.390Z,989.33
2018-12-09T01:41:39.346Z,989.36
2018-12-09T01:42:39.325Z,989.43
2018-12-09T01:43:39.254Z,989.53
2018-12-09T01:44:39.218Z,989.60
2018-12-09T01:45:39.176Z,989.64
2018-12-09T01:46:39.129Z,989.54
2018-12-09T01:47:39.085Z,989.64
2018-12-09T01:48:39.069Z,989.69
2018-12-09T01:49:38.999Z,989.66
2018-12-09T01:50:38.964Z,989.71
2018-12-09T01:51:38.945Z,989.74
2018-12-09T01:52:38.878Z,989.74
2018-12-09T01:53:38.837Z,989.75
2018-12-09T01:54:38.786Z,989.71
2018-12-09T01:55:38.766Z,989.71
2018-12-09T01:56:38.704Z,989.69
2018-12-09T01:57:38.687Z,989.75
2018-12-09T01:58:38.623Z,989.77
2018-12-09T01:59:38.605Z,989.79
2018-12-09T02:00:38.532Z,989.89
2018-12-09T02:01:38.489Z,989.83
2018-12-09T02:02:38.455Z,989.81
2018-12-09T02:03:38.413Z,989.74
2018-12-09T02:04:38.394Z,989.89
2018-12-09T02:05:38.329Z,989.85
2018-12-09T02:06:38.276Z,989.74
2018-12-09T02:07:38.232Z,989.92
2018-12-09T02:08:38.193Z,989.61
2018-12-09T02:09:38.175Z,989.86
2018-12-09T02:10:38.117Z,989.97
2018-12-09T02:11:38.069Z,989.90
2018-12-09T02:12:38.054Z,990.13
2018-12-09T02:13:38.010Z,990.01
2018-12-09T02:14:37.961Z,990.13
2018-12-09T02:15:37.897Z,990.00
2018-12-09T02:16:37.862Z,990.05
2018-12-09T02:17:37.823Z,990.09
2018-12-09T02:18:37.790Z,989.74
2018-12-09T02:19:37.728Z,990.11
2018-12-09T02:20:37.683Z,990.23
2018-12-09T02:21:37.642Z,990.25
2018-12-09T02:22:37.606Z,990.22
2018-12-09T02:23:37.585Z,990.17
2018-12-09T02:24:37.546Z,990.25
2018-12-09T02:25:37.480Z,990.22
2018-12-09T02:26:37.427Z,990.17
2018-12-09T02:27:37.388Z,989.86
2018-12-09T02:28:37.344Z,990.10
2018-12-09T02:29:37.322Z,990.25
2018-12-09T02:30:37.265Z,990.15
2018-12-09T02:31:37.222Z,990.18
2018-12-09T02:32:37.177Z,990.28
2018-12-09T02:33:37.161Z,990.27
2018-12-09T02:34:37.095Z,990.14
2018-12-09T02:35:37.053Z,990.28
2018-12-09T02:36:37.017Z,990.28
2018-12-09T02:37:36.977Z,990.39
2018-12-09T02:38:36.918Z,990.29
2018-12-09T02:39:36.899Z,990.34
2018-12-09T02:40:36.835Z,990.51
2018-12-09T02:41:36.791Z,990.51
2018-12-09T02:42:36.752Z,990.55
2018-12-09T02:43:36.710Z,990.37
2018-12-09T02:44:36.691Z,990.29
2018-12-09T02:45:36.630Z,990.20
2018-12-09T02:46:36.576Z,990.30
2018-12-09T02:47:36.532Z,990.36
2018-12-09T02:48:36.521Z,990.32
2018-12-09T02:49:36.456Z,990.39
2018-12-09T02:50:36.406Z,990.26
2018-12-09T02:51:36.362Z,990.20
2018-12-09T02:52:36.324Z,990.10
2018-12-09T02:53:36.297Z,990.02
2018-12-09T02:54:36.260Z,990.10
2018-12-09T02:55:36.195Z,990.12
2018-12-09T02:56:36.150Z,990.23
2018-12-09T02:57:36.111Z,990.19
2018-12-09T02:58:36.071Z,990.19
2018-12-09T02:59:36.039Z,990.33
2018-12-09T03:00:35.972Z,990.39
2018-12-09T03:01:35.927Z,990.42
2018-12-09T03:02:35.894Z,990.19
2018-12-09T03:03:35.850Z,990.13
2018-12-09T03:04:35.822Z,990.18
2018-12-09T03:05:35.756Z,990.18
2018-12-09T03:06:35.744Z,990.18
2018-12-09T03:07:35.675Z,990.07
2018-12-09T03:08:35.655Z,990.15
2018-12-09T03:09:35.587Z,990.13
2018-12-09T03:10:35.539Z,990.09
2018-12-09T03:11:35.496Z,990.13
2018-12-09T03:12:35.475Z,990.06
2018-12-09T03:13:35.408Z,990.08
2018-12-09T03:14:35.373Z,990.13
2018-12-09T03:15:35.327Z,990.15
2018-12-09T03:16:35.287Z,990.17
2018-12-09T03:17:35.267Z,990.24
2018-12-09T03:18:35.193Z,990.22
2018-12-09T03:19:35.150Z,990.23
2018-12-09T03:20:35.110Z,990.24
2018-12-09T03:21:35.072Z,990.27
2018-12-09T03:22:35.043Z,990.24
2018-12-09T03:23:34.974Z,990.18
2018-12-09T03:24:34.955Z,990.26
2018-12-09T03:25:34.886Z,990.30
2018-12-09T03:26:34.852Z,990.24
2018-12-09T03:27:34.810Z,990.31
2018-12-09T03:28:34.764Z,990.34
2018-12-09T03:29:34.743Z,990.38
2018-12-09T03:30:34.694Z,990.34
2018-12-09T03:31:34.630Z,990.33
2018-12-09T03:32:34.615Z,990.31
2018-12-09T03:33:34.614Z,990.35
2018-12-09T03:34:34.515Z,990.31
2018-12-09T03:35:34.465Z,990.36
2018-12-09T03:36:34.416Z,990.41
2018-12-09T03:37:34.390Z,990.26
2018-12-09T03:38:34.333Z,990.26
2018-12-09T03:39:34.291Z,990.29
2018-12-09T03:40:34.268Z,990.26
2018-12-09T03:41:34.203Z,990.43
2018-12-09T03:42:34.184Z,990.32
2018-12-09T03:43:34.110Z,990.34
2018-12-09T03:44:34.066Z,990.30
2018-12-09T03:45:34.023Z,990.31
2018-12-09T03:46:33.990Z,990.32
2018-12-09T03:47:33.972Z,990.30
2018-12-09T03:48:33.901Z,990.33
2018-12-09T03:49:33.863Z,990.30
2018-12-09T03:50:33.831Z,990.40
2018-12-09T03:51:33.767Z,990.38
2018-12-09T03:52:33.757Z,990.36
2018-12-09T03:53:33.685Z,990.34
2018-12-09T03:54:33.638Z,990.43
2018-12-09T03:55:33.593Z,990.44
2018-12-09T03:56:33.548Z,990.39
2018-12-09T03:57:33.532Z,990.36
2018-12-09T03:58:33.471Z,990.44
2018-12-09T03:59:33.429Z,990.50
2018-12-09T04:00:33.414Z,990.46
2018-12-09T04:01:33.342Z,990.40
2018-12-09T04:02:33.294Z,990.48
2018-12-09T04:03:33.251Z,990.47
2018-12-09T04:04:33.205Z,990.39
2018-12-09T04:05:33.163Z,990.43
2018-12-09T04:06:33.151Z,990.54
2018-12-09T04:07:33.088Z,990.40
2018-12-09T04:08:33.034Z,990.35
2018-12-09T04:09:32.990Z,990.42
2018-12-09T04:10:32.978Z,990.52
2018-12-09T04:11:32.909Z,990.55
2018-12-09T04:12:32.883Z,990.59
2018-12-09T04:13:32.825Z,990.58
2018-12-09T04:14:32.873Z,990.64
2018-12-09T04:15:32.755Z,990.63
2018-12-09T04:16:32.714Z,990.63
2018-12-09T04:17:32.644Z,990.61
2018-12-09T04:18:32.612Z,990.67
2018-12-09T04:19:32.564Z,990.52
2018-12-09T04:20:32.523Z,990.74
2018-12-09T04:21:32.477Z,990.67
2018-12-09T04:22:32.447Z,990.62
2018-12-09T04:23:32.401Z,990.64
2018-12-09T04:24:32.348Z,990.69
2018-12-09T04:25:32.303Z,990.70
2018-12-09T04:26:32.279Z,990.70
2018-12-09T04:27:32.210Z,990.63
2018-12-09T04:28:32.169Z,990.73
2018-12-09T04:29:32.122Z,990.67
2018-12-09T04:30:32.090Z,990.64
2018-12-09T04:31:32.071Z,990.66
2018-12-09T04:32:32.005Z,990.87
2018-12-09T04:33:31.957Z,990.81
2018-12-09T04:34:31.912Z,990.77
2018-12-09T04:35:31.866Z,990.85
2018-12-09T04:36:31.850Z,990.86
2018-12-09T04:37:31.792Z,990.82
2018-12-09T04:38:31.741Z,990.79
2018-12-09T04:39:31.700Z,990.78
2018-12-09T04:40:31.650Z,990.77
2018-12-09T04:41:31.608Z,990.72
2018-12-09T04:42:31.591Z,990.72
2018-12-09T04:43:31.524Z,990.75
2018-12-09T04:44:31.483Z,990.78
2018-12-09T04:45:31.443Z,990.87
2018-12-09T04:46:31.415Z,990.90
2018-12-09T04:47:31.344Z,990.82
2018-12-09T04:48:31.302Z,990.79
2018-12-09T04:49:31.262Z,990.92
2018-12-09T04:50:31.224Z,990.97
2018-12-09T04:51:31.208Z,990.91
2018-12-09T04:52:31.139Z,990.99
2018-12-09T04:53:31.094Z,990.94
2018-12-09T04:54:31.049Z,991.06
2018-12-09T04:55:31.002Z,991.03
2018-12-09T04:56:30.967Z,991.02
2018-12-09T04:57:30.942Z,990.95
2018-12-09T04:58:30.871Z,990.93
2018-12-09T04:59:30.829Z,991.05
2018-12-09T05:00:30.783Z,991.06
2018-12-09T05:01:30.743Z,991.06
2018-12-09T05:02:30.736Z,991.09
2018-12-09T05:03:30.660Z,990.99
2018-12-09T05:04:30.619Z,990.97
2018-12-09T05:05:30.575Z,990.98
2018-12-09T05:06:30.527Z,990.99
2018-12-09T05:07:30.483Z,991.07
2018-12-09T05:08:30.462Z,991.12
2018-12-09T05:09:30.396Z,991.07
2018-12-09T05:10:30.362Z,990.91
2018-12-09T05:11:30.319Z,991.05
2018-12-09T05:12:30.268Z,990.83
2018-12-09T05:13:30.247Z,990.93
2018-12-09T05:14:30.189Z,990.97
2018-12-09T05:15:30.147Z,991.05
2018-12-09T05:16:30.104Z,991.04
2018-12-09T05:17:30.059Z,990.96
2018-12-09T05:18:30.038Z,990.98
2018-12-09T05:19:29.967Z,990.96
2018-12-09T05:20:29.926Z,990.98
2018-12-09T05:21:29.880Z,991.02
2018-12-09T05:22:29.845Z,991.08
2018-12-09T05:23:29.800Z,990.97
2018-12-09T05:24:29.777Z,991.13
2018-12-09T05:25:29.714Z,991.02
2018-12-09T05:26:29.664Z,991.07
2018-12-09T05:27:29.619Z,991.10
2018-12-09T05:28:29.587Z,991.16
2018-12-09T05:29:29.569Z,991.12
2018-12-09T05:30:29.490Z,991.13
2018-12-09T05:31:29.449Z,991.16
2018-12-09T05:32:29.404Z,991.16
2018-12-09T05:33:29.363Z,991.25
2018-12-09T05:34:29.329Z,991.25
2018-12-09T05:35:29.307Z,991.21
2018-12-09T05:36:29.241Z,991.07
2018-12-09T05:37:29.197Z,991.18
2018-12-09T05:38:29.146Z,991.24
2018-12-09T05:39:29.127Z,991.28
2018-12-09T05:40:29.065Z,991.21
2018-12-09T05:41:29.016Z,991.20
2018-12-09T05:42:28.983Z,991.26
2018-12-09T05:43:28.939Z,991.19
2018-12-09T05:44:28.913Z,991.29
2018-12-09T05:45:28.869Z,991.40
2018-12-09T05:46:28.812Z,991.40
2018-12-09T05:47:28.767Z,991.33
2018-12-09T05:48:28.726Z,991.38
2018-12-09T05:49:28.682Z,991.32
2018-12-09T05:50:28.654Z,991.35
2018-12-09T05:51:28.609Z,991.32
2018-12-09T05:52:28.545Z,991.49
2018-12-09T05:53:28.501Z,991.43
2018-12-09T05:54:28.467Z,991.39
2018-12-09T05:55:28.443Z,991.35
2018-12-09T05:56:28.379Z,991.46
2018-12-09T05:57:28.338Z,991.39
2018-12-09T05:58:28.287Z,991.47
2018-12-09T05:59:28.244Z,991.35
2018-12-09T06:00:28.234Z,991.49
2018-12-09T06:01:28.191Z,991.49
2018-12-09T06:02:28.116Z,991.52
2018-12-09T06:03:28.072Z,991.56
2018-12-09T06:04:28.025Z,991.54
2018-12-09T06:05:27.983Z,991.60
2018-12-09T06:06:27.949Z,991.55
2018-12-09T06:07:27.926Z,991.59
2018-12-09T06:08:27.885Z,991.40
2018-12-09T06:09:27.819Z,991.61
2018-12-09T06:10:27.771Z,991.62
2018-12-09T06:11:27.730Z,991.62
2018-12-09T06:12:27.682Z,991.61
2018-12-09T06:13:27.664Z,991.53
2018-12-09T06:14:27.606Z,991.55
2018-12-09T06:15:27.558Z,991.57
2018-12-09T06:16:27.510Z,991.50
2018-12-09T06:17:27.467Z,991.60
2018-12-09T06:18:27.462Z,991.55
2018-12-09T06:19:27.388Z,991.56
2018-12-09T06:20:27.345Z,991.58
2018-12-09T06:21:27.301Z,991.60
2018-12-09T06:22:27.250Z,991.60
2018-12-09T06:23:27.207Z,991.57
2018-12-09T06:24:27.200Z,991.61
2018-12-09T06:25:27.125Z,991.58
2018-12-09T06:26:27.084Z,991.65
2018-12-09T06:27:27.041Z,991.65
2018-12-09T06:28:26.998Z,991.66
2018-12-09T06:29:26.957Z,991.68
2018-12-09T06:30:26.930Z,991.66
2018-12-09T06:31:26.860Z,991.69
2018-12-09T06:32:26.825Z,991.76
2018-12-09T06:33:26.784Z,991.72
2018-12-09T06:34:26.735Z,991.78
2018-12-09T06:35:26.711Z,991.77
2018-12-09T06:36:26.645Z,991.88
2018-12-09T06:37:26.603Z,991.81
2018-12-09T06:38:26.566Z,991.76
2018-12-09T06:39:26.525Z,991.85
2018-12-09T06:40:26.507Z,991.73
2018-12-09T06:41:26.439Z,991.85
2018-12-09T06:42:26.386Z,991.78
2018-12-09T06:43:26.342Z,991.86
2018-12-09T06:44:26.299Z,991.79
2018-12-09T06:45:26.257Z,991.91
2018-12-09T06:46:26.244Z,991.86
2018-12-09T06:47:26.202Z,991.80
2018-12-09T06:48:26.129Z,991.78
2018-12-09T06:49:26.083Z,991.82
2018-12-09T06:50:26.051Z,991.84
2018-12-09T06:51:26.003Z,991.89
2018-12-09T06:52:25.981Z,991.76
2018-12-09T06:53:25.921Z,991.85
2018-12-09T06:54:25.867Z,991.92
2018-12-09T06:55:25.823Z,991.84
2018-12-09T06:56:25.778Z,991.83
2018-12-09T06:57:25.773Z,991.97
2018-12-09T06:58:25.700Z,991.82
2018-12-09T06:59:25.659Z,991.86
2018-12-09T07:00:25.664Z,991.91
2018-12-09T07:01:25.571Z,991.96
2018-12-09T07:02:25.522Z,991.97
2018-12-09T07:03:25.504Z,992.04
2018-12-09T07:04:25.452Z,992.05
2018-12-09T07:05:25.396Z,992.06
2018-12-09T07:06:25.344Z,992.09
2018-12-09T07:07:25.306Z,992.07
2018-12-09T07:08:25.284Z,992.15
2018-12-09T07:09:25.219Z,992.08
2018-12-09T07:10:25.185Z,992.06
2018-12-09T07:11:25.139Z,992.12
2018-12-09T07:12:25.099Z,992.19
2018-12-09T07:13:25.076Z,992.22
2018-12-09T07:14:25.118Z,992.18
2018-12-09T07:15:24.959Z,992.24
2018-12-09T07:16:24.917Z,992.20
2018-12-09T07:17:24.873Z,992.28
2018-12-09T07:18:24.836Z,992.18
2018-12-09T07:19:24.820Z,992.25
2018-12-09T07:20:24.747Z,992.36
2018-12-09T07:21:24.705Z,992.44
2018-12-09T07:22:24.664Z,992.43
2018-12-09T07:23:24.618Z,992.40
2018-12-09T07:24:24.601Z,992.41
2018-12-09T07:25:24.538Z,992.42
2018-12-09T07:26:24.486Z,992.44
2018-12-09T07:27:24.444Z,992.46
2018-12-09T07:28:24.400Z,992.45
2018-12-09T07:29:24.382Z,992.48
2018-12-09T07:30:24.321Z,992.50
2018-12-09T07:31:24.277Z,992.46
2018-12-09T07:32:24.234Z,992.55
2018-12-09T07:33:24.192Z,992.68
2018-12-09T07:34:24.142Z,992.58
2018-12-09T07:35:24.123Z,992.65
2018-12-09T07:36:24.063Z,992.52
2018-12-09T07:37:24.019Z,992.60
2018-12-09T07:38:23.969Z,992.61
2018-12-09T07:39:23.949Z,992.63
2018-12-09T07:40:23.904Z,992.61
2018-12-09T07:41:23.840Z,992.59
2018-12-09T07:42:23.804Z,992.68
2018-12-09T07:43:23.762Z,992.65
2018-12-09T07:44:23.744Z,992.71
2018-12-09T07:45:23.673Z,992.69
2018-12-09T07:46:23.627Z,992.66
2018-12-09T07:47:23.582Z,992.83
2018-12-09T07:48:23.539Z,992.78
2018-12-09T07:49:23.501Z,992.79
2018-12-09T07:50:23.481Z,992.79
2018-12-09T07:51:23.416Z,992.77
2018-12-09T07:52:23.369Z,992.82
2018-12-09T07:53:23.326Z,992.77
2018-12-09T07:54:23.289Z,992.83
2018-12-09T07:55:23.275Z,992.93
2018-12-09T07:56:23.205Z,992.99
2018-12-09T07:57:23.160Z,992.94
2018-12-09T07:58:23.110Z,992.93
2018-12-09T07:59:23.067Z,992.95
2018-12-09T08:00:23.025Z,992.95
2018-12-09T08:01:23.010Z,992.83
2018-12-09T08:02:22.945Z,992.94
2018-12-09T08:03:22.903Z,992.98
2018-12-09T08:04:22.860Z,992.93
2018-12-09T08:05:22.846Z,993.01
2018-12-09T08:06:22.768Z,993.00
2018-12-09T08:07:22.724Z,993.17
2018-12-09T08:08:22.693Z,993.05
2018-12-09T08:09:22.645Z,993.09
2018-12-09T08:10:22.600Z,993.06
2018-12-09T08:11:22.578Z,993.12
2018-12-09T08:12:22.516Z,993.08
2018-12-09T08:13:22.471Z,993.17
2018-12-09T08:14:22.433Z,993.12
2018-12-09T08:15:22.391Z,993.15
2018-12-09T08:16:22.377Z,993.17
2018-12-09T08:17:22.306Z,993.21
2018-12-09T08:18:22.258Z,993.10
2018-12-09T08:19:22.216Z,993.19
2018-12-09T08:20:22.171Z,993.13
2018-12-09T08:21:22.127Z,993.26
2018-12-09T08:22:22.117Z,993.23
2018-12-09T08:23:22.048Z,993.29
2018-12-09T08:24:22.030Z,993.32
2018-12-09T08:25:21.971Z,993.27
2018-12-09T08:26:21.929Z,993.27
2018-12-09T08:27:21.904Z,993.25
2018-12-09T08:28:21.842Z,993.16
2018-12-09T08:29:21.796Z,993.29
2018-12-09T08:30:21.749Z,993.33
2018-12-09T08:31:21.704Z,993.29
2018-12-09T08:32:21.684Z,993.31
2018-12-09T08:33:21.621Z,993.30
2018-12-09T08:34:21.586Z,993.32
2018-12-09T08:35:21.549Z,993.26
2018-12-09T08:36:21.531Z,993.28
2018-12-09T08:37:21.461Z,993.25
2018-12-09T08:38:21.408Z,993.34
2018-12-09T08:39:21.365Z,993.32
2018-12-09T08:40:21.331Z,993.34
2018-12-09T08:41:21.286Z,993.30
2018-12-09T08:42:21.264Z,993.31
2018-12-09T08:43:21.202Z,993.30
2018-12-09T08:44:21.157Z,993.30
2018-12-09T08:45:21.118Z,993.34
2018-12-09T08:46:21.093Z,993.29
2018-12-09T08:47:21.033Z,993.37
2018-12-09T08:48:21.013Z,993.34
2018-12-09T08:49:20.949Z,993.37
2018-12-09T08:50:20.928Z,993.27
2018-12-09T08:51:20.855Z,993.39
2018-12-09T08:52:20.844Z,993.40
2018-12-09T08:53:20.772Z,993.39
2018-12-09T08:54:20.738Z,993.38
2018-12-09T08:55:20.696Z,993.45
2018-12-09T08:56:20.665Z,993.45
2018-12-09T08:57:20.599Z,993.43
2018-12-09T08:58:20.568Z,993.50
2018-12-09T08:59:20.548Z,993.40
2018-12-09T09:00:20.505Z,993.50
2018-12-09T09:01:20.439Z,993.44
2018-12-09T09:02:20.391Z,993.45
2018-12-09T09:03:20.347Z,993.47
2018-12-09T09:04:20.306Z,993.52
2018-12-09T09:05:20.284Z,993.47
2018-12-09T09:06:20.232Z,993.47
2018-12-09T09:07:20.186Z,993.53
2018-12-09T09:08:20.143Z,993.50
2018-12-09T09:09:20.100Z,993.44
2018-12-09T09:10:21.992Z,993.54
2018-12-09T09:11:20.010Z,993.59
2018-12-09T09:12:20.079Z,993.47
2018-12-09T09:13:19.933Z,993.58
2018-12-09T09:14:19.885Z,993.57
2018-12-09T09:15:19.862Z,993.57
2018-12-09T09:16:19.825Z,993.53
2018-12-09T09:17:19.756Z,993.56
2018-12-09T09:18:19.718Z,993.58
2018-12-09T09:19:19.681Z,993.59
2018-12-09T09:20:19.637Z,993.60
2018-12-09T09:21:19.596Z,993.63
2018-12-09T09:22:19.572Z,993.60
2018-12-09T09:23:19.502Z,993.62
2018-12-09T09:24:19.461Z,993.48
2018-12-09T09:25:19.418Z,993.60
2018-12-09T09:26:19.383Z,993.68
2018-12-09T09:27:19.341Z,993.59
2018-12-09T09:28:19.318Z,993.64
2018-12-09T09:29:19.250Z,993.70
2018-12-09T09:30:19.211Z,993.54
2018-12-09T09:31:19.168Z,993.62
2018-12-09T09:32:19.128Z,993.64
2018-12-09T09:33:19.084Z,993.63
2018-12-09T09:34:19.059Z,993.64
2018-12-09T09:35:18.991Z,993.69
2018-12-09T09:36:18.950Z,993.71
2018-12-09T09:37:18.909Z,993.74
2018-12-09T09:38:18.871Z,993.73
2018-12-09T09:39:18.859Z,993.75
2018-12-09T09:40:18.787Z,993.75
2018-12-09T09:41:18.747Z,993.68
2018-12-09T09:42:18.698Z,993.83
2018-12-09T09:43:18.656Z,993.71
2018-12-09T09:44:18.619Z,993.68
2018-12-09T09:45:18.601Z,993.80
2018-12-09T09:46:18.550Z,993.73
2018-12-09T09:47:18.657Z,993.74
2018-12-09T09:48:18.443Z,993.75
2018-12-09T09:49:18.397Z,993.80
2018-12-09T09:50:18.368Z,993.86
2018-12-09T09:52:50.393Z,993.87
2018-12-09T09:53:50.256Z,993.88
2018-12-09T09:54:50.224Z,993.87
2018-12-09T09:55:50.176Z,993.93
2018-12-09T09:56:50.144Z,993.99
2018-12-09T09:57:50.253Z,993.93
2018-12-09T09:58:50.048Z,993.96
2018-12-09T09:59:50.027Z,993.93
2018-12-09T10:00:49.965Z,993.94
2018-12-09T10:01:49.954Z,993.90
2018-12-09T10:02:49.898Z,993.91
2018-12-09T10:03:49.846Z,993.82
2018-12-09T10:04:49.815Z,993.90
2018-12-09T10:05:49.770Z,993.97
2018-12-09T10:06:49.703Z,993.97
2018-12-09T10:07:49.717Z,993.97
2018-12-09T10:08:49.627Z,993.94
2018-12-09T10:09:49.589Z,993.97
2018-12-09T10:10:49.559Z,993.93
2018-12-09T10:11:49.503Z,993.92
2018-12-09T10:12:49.456Z,993.94
2018-12-09T10:13:49.475Z,994.01
2018-12-09T10:14:49.396Z,994.08
2018-12-09T10:15:49.321Z,994.02
2018-12-09T10:16:49.290Z,994.07
2018-12-09T10:17:49.231Z,994.17
2018-12-09T10:18:49.215Z,994.18
2018-12-09T10:19:49.149Z,994.14
2018-12-09T10:20:49.137Z,994.10
2018-12-09T10:21:49.060Z,994.09
2018-12-09T10:22:49.023Z,994.10
2018-12-09T10:23:48.983Z,994.19
2018-12-09T10:24:48.943Z,994.16
2018-12-09T10:25:48.891Z,994.21
2018-12-09T10:26:48.876Z,994.15
2018-12-09T10:27:48.822Z,994.18
2018-12-09T10:28:48.757Z,994.14
2018-12-09T10:29:48.738Z,994.17
2018-12-09T10:30:48.698Z,994.16
2018-12-09T10:31:48.662Z,994.09
2018-12-09T10:32:48.627Z,994.16
2018-12-09T10:33:49.562Z,994.05
2018-12-09T10:34:48.530Z,994.09
2018-12-09T10:35:48.465Z,994.15
2018-12-09T10:36:48.439Z,994.14
2018-12-09T10:37:48.382Z,994.19
2018-12-09T10:38:48.368Z,994.18
2018-12-09T10:39:48.296Z,994.11
2018-12-09T10:40:48.253Z,994.22
2018-12-09T10:41:48.249Z,994.21
2018-12-09T10:42:48.173Z,994.20
2018-12-09T10:43:48.125Z,994.16
2018-12-09T10:44:48.081Z,994.17
2018-12-09T10:45:48.029Z,994.17
2018-12-09T10:46:48.014Z,994.22
2018-12-09T10:47:47.944Z,994.23
2018-12-09T10:48:47.920Z,994.13
2018-12-09T10:49:47.872Z,994.17
2018-12-09T10:50:47.827Z,994.17
2018-12-09T10:51:47.804Z,994.17
2018-12-09T10:52:47.769Z,994.16
2018-12-09T10:53:47.692Z,994.15
2018-12-09T10:54:47.698Z,994.03
2018-12-09T10:55:47.614Z,994.09
2018-12-09T10:56:47.593Z,994.13
2018-12-09T10:57:47.530Z,994.14
2018-12-09T10:58:47.483Z,994.07
2018-12-09T10:59:47.467Z,994.11
2018-12-09T11:00:47.392Z,994.13
2018-12-09T11:01:47.348Z,994.08
2018-12-09T11:02:47.317Z,994.14
2018-12-09T11:03:47.301Z,994.19
2018-12-09T11:04:47.231Z,994.06
2018-12-09T11:05:47.189Z,994.12
2018-12-09T11:06:47.133Z,994.08
2018-12-09T11:07:47.111Z,994.11
2018-12-09T11:08:47.075Z,994.11
2018-12-09T11:09:47.015Z,994.16
2018-12-09T11:10:46.968Z,994.15
2018-12-09T11:11:46.919Z,994.06
2018-12-09T11:12:46.895Z,994.26
2018-12-09T11:13:46.877Z,994.30
2018-12-09T11:14:46.814Z,994.30
2018-12-09T11:15:46.764Z,994.31
2018-12-09T11:16:46.711Z,994.34
2018-12-09T11:17:46.683Z,994.37
2018-12-09T11:18:46.652Z,994.44
2018-12-09T11:19:46.591Z,994.41
2018-12-09T11:20:46.548Z,994.45
2018-12-09T11:21:46.509Z,994.56
2018-12-09T11:22:46.483Z,994.50
2018-12-09T11:23:46.450Z,994.49
2018-12-09T11:24:46.411Z,994.66
2018-12-09T11:25:46.367Z,994.57
2018-12-09T11:26:46.302Z,994.63
2018-12-09T11:27:46.272Z,994.59
2018-12-09T11:28:46.225Z,994.57
2018-12-09T11:29:46.161Z,994.56
2018-12-09T11:30:46.139Z,994.58
2018-12-09T11:31:46.132Z,994.56
2018-12-09T11:32:46.066Z,994.55
2018-12-09T11:33:46.038Z,994.61
2018-12-09T11:34:45.983Z,994.58
2018-12-09T11:35:45.935Z,994.58
2018-12-09T11:36:45.922Z,994.56
2018-12-09T11:37:45.838Z,994.56
2018-12-09T11:38:45.794Z,994.52
2018-12-09T11:39:45.773Z,994.58
2018-12-09T11:40:45.714Z,994.58
2018-12-09T11:41:45.692Z,994.57
2018-12-09T11:42:45.684Z,994.65
2018-12-09T11:43:45.606Z,994.60
2018-12-09T11:44:45.570Z,994.59
2018-12-09T11:45:45.545Z,994.55
2018-12-09T11:46:45.468Z,994.64
2018-12-09T11:47:45.469Z,994.66
2018-12-09T11:48:45.403Z,994.78
2018-12-09T11:49:45.373Z,994.68
2018-12-09T11:50:45.311Z,994.76
2018-12-09T11:51:45.263Z,995.03
2018-12-09T11:52:45.222Z,995.06
2018-12-09T11:53:45.181Z,995.09
2018-12-09T11:54:45.140Z,995.13
2018-12-09T11:55:45.147Z,995.14
2018-12-09T11:56:45.061Z,995.12
2018-12-09T11:57:45.023Z,995.04
2018-12-09T11:58:44.965Z,995.13
2018-12-09T11:59:44.993Z,995.06
2018-12-09T12:00:44.892Z,995.03
2018-12-09T12:01:44.863Z,995.08
2018-12-09T12:02:44.811Z,995.06
2018-12-09T12:03:44.778Z,995.07
2018-12-09T12:04:44.718Z,995.17
2018-12-09T12:05:44.703Z,995.11
2018-12-09T12:06:44.636Z,995.14
2018-12-09T12:07:44.621Z,995.16
2018-12-09T12:08:44.560Z,995.15
2018-12-09T12:09:44.503Z,995.14
2018-12-09T12:10:44.486Z,995.16
2018-12-09T12:11:44.418Z,995.20
2018-12-09T12:12:44.397Z,995.19
2018-12-09T12:13:44.359Z,995.16
2018-12-09T12:14:44.287Z,995.12
2018-12-09T12:15:44.377Z,995.13
2018-12-09T12:16:44.210Z,995.19
2018-12-09T12:17:44.192Z,995.16
2018-12-09T12:18:44.173Z,995.20
2018-12-09T12:19:44.098Z,995.17
2018-12-09T12:20:44.073Z,995.18
2018-12-09T12:21:44.010Z,995.25
2018-12-09T12:22:43.964Z,995.27
2018-12-09T12:23:43.919Z,995.34
2018-12-09T12:24:43.860Z,995.36
2018-12-09T12:25:43.821Z,995.37
2018-12-09T12:26:43.817Z,995.34
2018-12-09T12:27:43.743Z,995.37
2018-12-09T12:28:43.693Z,995.39
2018-12-09T12:29:43.651Z,995.37